»·PEaware :: N214A KSEE-KPSP

N214A :: KSEE-KPSP

FLIGHT INFORMATION

Flight Status: Arrived
Operator: Privately registered:
United States
More flights under this callsign
Pilot: Brian K. (40043)
Aircraft: CESSNA 172 SKYHAWK
(C172)
More flights by this aircraft type
Origin: KSEE Gillespie
United States
Destination: KPSP Palm Springs Intl
United States
More flights between these airports :: More routes between these airports
Route:
File this flight plan on PilotEdge
Remarks:
Altitude:
(Current/Filed)
7,500ft
Speed:
(Current/Filed)
0kts
Departed: 20-Nov-23 12:56 PM
Arrived: 20-Nov-23 01:57 PM
Distance/Time
Traveled:
64nm/1:01
Distance/Time
To Go:
Arrived

Flight Plot

Page will automatically refresh every two minutes.


Map Options




Map Legend


Flown Route
Filed Route
Departure Airport
Arrival Airport
Navaid (VOR, NDB)
Fix

Horizontal Profiles

Position Reports

Time Latitude Longitude Heading Altitude Ground
Speed
20-Nov-23 12:47 32.825878 -116.974188 13 373ft 0kts
20-Nov-23 12:48 32.825878 -116.974188 13 373ft 0kts
20-Nov-23 12:49 32.825920 -116.973544 114 374ft 5kts
20-Nov-23 12:50 32.824338 -116.972926 180 377ft 12kts
20-Nov-23 12:51 32.820647 -116.972900 179 381ft 14kts
20-Nov-23 12:52 32.818606 -116.972887 183 387ft 5kts
20-Nov-23 12:53 32.818407 -116.972876 160 387ft 0kts
20-Nov-23 12:54 32.818407 -116.972876 160 387ft 0kts
20-Nov-23 12:55 32.820978 -116.972427 359 381ft 60kts
20-Nov-23 12:56 32.840194 -116.970412 7 1112ft 70kts
20-Nov-23 12:57 32.844498 -116.947629 88 1839ft 81kts
20-Nov-23 12:58 32.846809 -116.922077 69 2518ft 76kts
20-Nov-23 12:59 32.854451 -116.899315 56 3143ft 74kts
20-Nov-23 13:00 32.864278 -116.878373 60 3745ft 72kts
20-Nov-23 13:01 32.874079 -116.857504 52 4299ft 71kts
20-Nov-23 13:02 32.884483 -116.836538 59 4813ft 73kts
20-Nov-23 13:03 32.892451 -116.813545 64 5315ft 73kts
20-Nov-23 13:04 32.899879 -116.790215 63 5763ft 76kts
20-Nov-23 13:05 32.908906 -116.767486 55 6202ft 76kts
20-Nov-23 13:06 32.920063 -116.745840 57 6601ft 77kts
20-Nov-23 13:07 32.930775 -116.723728 54 6986ft 79kts
20-Nov-23 13:08 32.941925 -116.701352 58 7362ft 79kts
20-Nov-23 13:09 32.952695 -116.677945 58 7526ft 85kts
20-Nov-23 13:10 32.965450 -116.651454 59 7534ft 97kts
20-Nov-23 13:11 32.977499 -116.621763 65 7494ft 102kts
20-Nov-23 13:12 32.987411 -116.589544 70 7377ft 105kts
20-Nov-23 13:13 33.000120 -116.560460 57 7432ft 98kts
20-Nov-23 13:14 33.017577 -116.536102 46 7500ft 94kts
20-Nov-23 13:15 33.036768 -116.514311 35 7566ft 94kts
20-Nov-23 13:16 33.058235 -116.495398 38 7554ft 100kts
20-Nov-23 13:17 33.080198 -116.474346 37 7506ft 100kts
20-Nov-23 13:18 33.102274 -116.453924 38 7458ft 101kts
20-Nov-23 13:19 33.123426 -116.432176 40 7426ft 101kts
20-Nov-23 13:20 33.146286 -116.412755 33 7422ft 99kts
20-Nov-23 13:21 33.169425 -116.393883 34 7401ft 100kts
20-Nov-23 13:22 33.190478 -116.373518 40 7527ft 94kts
20-Nov-23 13:23 33.210266 -116.351914 39 7593ft 97kts
20-Nov-23 13:24 33.230393 -116.327860 44 7512ft 105kts
20-Nov-23 13:25 33.250593 -116.301859 44 7419ft 106kts
20-Nov-23 13:26 33.269904 -116.277233 44 7503ft 101kts
20-Nov-23 13:27 33.291674 -116.254523 36 7450ft 104kts
20-Nov-23 13:28 33.314283 -116.234336 32 7504ft 101kts
20-Nov-23 13:29 33.337512 -116.214878 34 7489ft 104kts
20-Nov-23 13:30 33.360804 -116.194517 32 7475ft 104kts
20-Nov-23 13:31 33.383595 -116.173206 38 7450ft 104kts
20-Nov-23 13:32 33.404926 -116.149965 39 7446ft 103kts
20-Nov-23 13:33 33.425962 -116.126341 42 7433ft 104kts
20-Nov-23 13:34 33.445804 -116.101167 45 7422ft 104kts
20-Nov-23 13:36 33.470790 -116.086589 6 7411ft 101kts
20-Nov-23 13:37 33.498237 -116.091731 343 7426ft 101kts
20-Nov-23 13:38 33.524165 -116.106470 336 7410ft 104kts
20-Nov-23 13:39 33.550248 -116.120927 342 7418ft 103kts
20-Nov-23 13:40 33.578027 -116.132201 349 7347ft 106kts
20-Nov-23 13:41 33.606610 -116.141799 349 6867ft 108kts
20-Nov-23 13:42 33.634109 -116.154460 328 6306ft 109kts
20-Nov-23 13:43 33.655775 -116.179611 320 5739ft 107kts
20-Nov-23 13:44 33.675258 -116.206192 317 5185ft 104kts
20-Nov-23 13:45 33.692750 -116.232799 312 4727ft 101kts
20-Nov-23 13:46 33.708035 -116.260196 308 4433ft 93kts
20-Nov-23 13:47 33.722196 -116.286322 310 4395ft 98kts
20-Nov-23 13:48 33.736467 -116.314663 304 4206ft 100kts
20-Nov-23 13:49 33.747439 -116.345319 298 3896ft 100kts
20-Nov-23 13:50 33.757743 -116.376030 299 3509ft 98kts
20-Nov-23 13:51 33.767429 -116.406398 297 3106ft 97kts
20-Nov-23 13:52 33.775597 -116.436883 297 2708ft 94kts
20-Nov-23 13:53 33.785912 -116.464333 315 1916ft 72kts
20-Nov-23 13:54 33.797580 -116.477119 334 1008ft 50kts
20-Nov-23 13:55 33.808759 -116.486446 324 666ft 48kts
20-Nov-23 13:56 33.820452 -116.496640 330 522ft 52kts
20-Nov-23 13:57 33.828891 -116.504100 326 427ft 24kts
20-Nov-23 13:58 33.829301 -116.503457 144 426ft 20kts
20-Nov-23 13:59 33.825035 -116.499670 140 409ft 15kts

Navigation Log

Ident Type
Flight plan parsing failed, navigation log unavailable